createdAt,value
2018-06-02T00:00:48.123Z,0.00
2018-06-02T00:01:48.033Z,0.00
2018-06-02T00:02:47.954Z,0.00
2018-06-02T00:03:47.851Z,0.00
2018-06-02T00:04:47.763Z,0.00
2018-06-02T00:05:47.657Z,0.00
2018-06-02T00:06:47.816Z,0.00
2018-06-02T00:07:47.475Z,0.00
2018-06-02T00:08:47.385Z,0.00
2018-06-02T00:09:47.295Z,0.00
2018-06-02T00:10:47.203Z,0.00
2018-06-02T00:11:47.100Z,0.00
2018-06-02T00:12:47.010Z,0.00
2018-06-02T00:13:46.917Z,0.00
2018-06-02T00:14:46.826Z,0.00
2018-06-02T00:15:46.738Z,0.00
2018-06-02T00:16:46.688Z,0.00
2018-06-02T00:17:46.542Z,0.00
2018-06-02T00:18:46.451Z,0.00
2018-06-02T00:19:46.360Z,0.00
2018-06-02T00:20:46.269Z,0.00
2018-06-02T00:21:46.179Z,0.00
2018-06-02T00:22:46.091Z,0.00
2018-06-02T00:23:45.984Z,0.00
2018-06-02T00:24:45.893Z,0.00
2018-06-02T00:25:45.803Z,0.00
2018-06-02T00:26:45.711Z,0.00
2018-06-02T00:27:45.622Z,0.00
2018-06-02T00:28:45.530Z,0.00
2018-06-02T00:29:45.428Z,0.00
2018-06-02T00:30:45.341Z,0.00
2018-06-02T00:31:45.245Z,0.00
2018-06-02T00:32:45.155Z,0.00
2018-06-02T00:33:45.064Z,0.00
2018-06-02T00:34:44.973Z,0.00
2018-06-02T00:35:44.871Z,0.00
2018-06-02T00:36:44.780Z,0.00
2018-06-02T00:37:44.688Z,0.00
2018-06-02T00:38:44.597Z,0.00
2018-06-02T00:39:44.507Z,0.00
2018-06-02T00:40:44.415Z,0.00
2018-06-02T00:41:44.313Z,0.00
2018-06-02T00:42:44.224Z,0.00
2018-06-02T00:43:44.143Z,0.00
2018-06-02T00:44:44.040Z,0.00
2018-06-02T00:45:43.948Z,0.00
2018-06-02T00:46:43.859Z,0.00
2018-06-02T00:47:43.756Z,0.00
2018-06-02T00:48:43.665Z,0.00
2018-06-02T00:49:43.573Z,0.00
2018-06-02T00:50:43.482Z,0.00
2018-06-02T00:51:43.392Z,0.00
2018-06-02T00:52:43.300Z,0.00
2018-06-02T00:53:43.210Z,0.00
2018-06-02T00:54:43.106Z,0.00
2018-06-02T00:55:43.015Z,0.00
2018-06-02T00:56:42.927Z,0.00
2018-06-02T00:57:42.834Z,0.00
2018-06-02T00:58:42.744Z,0.00
2018-06-02T00:59:42.652Z,0.00
2018-06-02T01:00:42.549Z,0.00
2018-06-02T01:01:42.463Z,0.00
2018-06-02T01:02:42.367Z,0.00
2018-06-02T01:03:42.278Z,0.00
2018-06-02T01:04:42.186Z,0.00
2018-06-02T01:05:42.098Z,0.00
2018-06-02T01:06:41.999Z,0.00
2018-06-02T01:07:41.901Z,0.00
2018-06-02T01:08:41.812Z,0.00
2018-06-02T01:09:41.719Z,0.00
2018-06-02T01:10:41.629Z,0.00
2018-06-02T01:11:41.539Z,0.00
2018-06-02T01:12:41.436Z,0.00
2018-06-02T01:13:41.344Z,0.00
2018-06-02T01:14:41.252Z,0.00
2018-06-02T01:15:41.162Z,0.00
2018-06-02T01:16:41.071Z,0.00
2018-06-02T01:17:40.981Z,0.00
2018-06-02T01:18:40.889Z,0.00
2018-06-02T01:19:40.786Z,0.00
2018-06-02T01:20:40.696Z,0.00
2018-06-02T01:21:40.854Z,0.00
2018-06-02T01:22:40.520Z,0.00
2018-06-02T01:23:40.422Z,0.00
2018-06-02T01:24:40.333Z,0.00
2018-06-02T01:25:40.230Z,0.00
2018-06-02T01:26:40.138Z,0.00
2018-06-02T01:27:40.048Z,0.00
2018-06-02T01:28:39.956Z,0.00
2018-06-02T01:29:39.867Z,0.00
2018-06-02T01:30:39.775Z,0.00
2018-06-02T01:31:39.673Z,0.00
2018-06-02T01:32:39.582Z,0.00
2018-06-02T01:33:39.489Z,0.00
2018-06-02T01:34:39.399Z,0.00
2018-06-02T01:35:39.308Z,0.00
2018-06-02T01:36:39.218Z,0.00
2018-06-02T01:37:39.130Z,0.00
2018-06-02T01:38:39.023Z,0.00
2018-06-02T01:39:38.933Z,0.00
2018-06-02T01:40:38.842Z,0.00
2018-06-02T01:41:38.752Z,0.00
2018-06-02T01:42:38.659Z,0.00
2018-06-02T01:43:38.571Z,0.00
2018-06-02T01:44:38.478Z,0.00
2018-06-02T01:45:38.375Z,0.00
2018-06-02T01:46:38.286Z,0.00
2018-06-02T01:47:38.193Z,0.00
2018-06-02T01:48:38.104Z,0.00
2018-06-02T01:49:38.012Z,0.00
2018-06-02T01:50:37.922Z,0.00
2018-06-02T01:51:37.819Z,0.00
2018-06-02T01:52:37.726Z,0.00
2018-06-02T01:53:37.636Z,0.00
2018-06-02T01:54:37.545Z,0.00
2018-06-02T01:55:37.460Z,0.00
2018-06-02T01:56:37.363Z,0.00
2018-06-02T01:57:37.273Z,0.00
2018-06-02T01:58:37.170Z,0.00
2018-06-02T01:59:37.078Z,0.00
2018-06-02T02:00:36.995Z,0.00
2018-06-02T02:01:36.897Z,0.00
2018-06-02T02:02:36.806Z,0.00
2018-06-02T02:03:36.715Z,0.00
2018-06-02T02:04:36.624Z,0.00
2018-06-02T02:05:36.521Z,0.00
2018-06-02T02:06:36.430Z,0.00
2018-06-02T02:07:36.340Z,0.00
2018-06-02T02:08:36.248Z,0.00
2018-06-02T02:09:36.159Z,0.00
2018-06-02T02:10:36.066Z,0.00
2018-06-02T02:11:35.965Z,0.00
2018-06-02T02:12:35.874Z,0.00
2018-06-02T02:13:35.782Z,0.00
2018-06-02T02:14:35.692Z,0.00
2018-06-02T02:15:35.605Z,0.00
2018-06-02T02:16:35.510Z,0.00
2018-06-02T02:17:35.419Z,0.00
2018-06-02T02:18:35.316Z,0.00
2018-06-02T02:19:35.225Z,0.00
2018-06-02T02:20:35.134Z,0.00
2018-06-02T02:21:35.044Z,0.00
2018-06-02T02:22:34.953Z,0.00
2018-06-02T02:23:34.861Z,0.00
2018-06-02T02:24:34.770Z,0.00
2018-06-02T02:25:34.667Z,0.00
2018-06-02T02:26:34.576Z,0.00
2018-06-02T02:27:34.486Z,0.00
2018-06-02T02:28:34.395Z,0.00
2018-06-02T02:29:34.304Z,0.00
2018-06-02T02:30:34.214Z,0.00
2018-06-02T02:31:34.111Z,0.00
2018-06-02T02:32:34.019Z,0.00
2018-06-02T02:33:33.929Z,0.00
2018-06-02T02:34:33.842Z,0.00
2018-06-02T02:35:33.747Z,0.00
2018-06-02T02:36:33.656Z,0.00
2018-06-02T02:37:33.554Z,0.00
2018-06-02T02:38:33.461Z,0.00
2018-06-02T02:39:33.371Z,0.00
2018-06-02T02:40:33.281Z,0.00
2018-06-02T02:41:33.191Z,0.00
2018-06-02T02:42:33.100Z,0.00
2018-06-02T02:43:32.995Z,0.00
2018-06-02T02:44:32.904Z,0.00
2018-06-02T02:45:32.815Z,0.00
2018-06-02T02:46:32.723Z,0.00
2018-06-02T02:47:32.632Z,5.63
2018-06-02T02:48:32.540Z,5.63
2018-06-02T02:49:32.439Z,5.63
2018-06-02T02:50:32.349Z,5.63
2018-06-02T02:51:32.261Z,5.63
2018-06-02T02:52:32.165Z,5.63
2018-06-02T02:53:32.075Z,5.63
2018-06-02T02:54:31.985Z,5.63
2018-06-02T02:55:31.882Z,5.63
2018-06-02T02:56:32.090Z,5.63
2018-06-02T02:57:31.699Z,11.25
2018-06-02T02:58:31.608Z,11.25
2018-06-02T02:59:31.519Z,11.25
2018-06-02T03:00:31.426Z,11.25
2018-06-02T03:01:31.341Z,11.25
2018-06-02T03:02:31.243Z,11.25
2018-06-02T03:03:31.145Z,11.25
2018-06-02T03:04:31.098Z,11.25
2018-06-02T03:05:30.959Z,11.25
2018-06-02T03:06:30.875Z,11.25
2018-06-02T03:07:30.769Z,11.25
2018-06-02T03:08:30.679Z,16.88
2018-06-02T03:09:30.585Z,16.88
2018-06-02T03:10:30.493Z,16.88
2018-06-02T03:11:30.404Z,16.88
2018-06-02T03:12:30.311Z,16.88
2018-06-02T03:13:30.210Z,16.88
2018-06-02T03:14:30.118Z,16.88
2018-06-02T03:15:30.027Z,16.88
2018-06-02T03:16:29.937Z,22.50
2018-06-02T03:17:29.844Z,22.50
2018-06-02T03:18:29.755Z,22.50
2018-06-02T03:19:29.651Z,22.50
2018-06-02T03:20:29.560Z,22.50
2018-06-02T03:21:29.470Z,22.50
2018-06-02T03:22:29.378Z,22.50
2018-06-02T03:23:29.288Z,22.50
2018-06-02T03:24:29.199Z,28.13
2018-06-02T03:25:29.099Z,28.13
2018-06-02T03:26:29.002Z,28.13
2018-06-02T03:27:28.911Z,28.13
2018-06-02T03:28:28.822Z,28.13
2018-06-02T03:29:28.729Z,28.13
2018-06-02T03:30:28.643Z,28.13
2018-06-02T03:31:28.537Z,33.75
2018-06-02T03:32:28.448Z,33.75
2018-06-02T03:33:28.356Z,33.75
2018-06-02T03:34:28.263Z,33.75
2018-06-02T03:35:28.173Z,33.75
2018-06-02T03:36:28.087Z,39.38
2018-06-02T03:37:27.979Z,39.38
2018-06-02T03:38:27.889Z,39.38
2018-06-02T03:39:27.797Z,39.38
2018-06-02T03:40:27.706Z,39.38
2018-06-02T03:41:27.628Z,39.38
2018-06-02T03:42:27.524Z,45.00
2018-06-02T03:43:27.421Z,45.00
2018-06-02T03:44:27.330Z,45.00
2018-06-02T03:45:27.240Z,50.63
2018-06-02T03:46:27.148Z,50.63
2018-06-02T03:47:27.066Z,50.63
2018-06-02T03:48:26.970Z,56.25
2018-06-02T03:49:26.865Z,56.25
2018-06-02T03:50:26.773Z,56.25
2018-06-02T03:51:26.984Z,56.25
2018-06-02T03:52:26.591Z,61.88
2018-06-02T03:53:26.500Z,61.88
2018-06-02T03:54:26.410Z,61.88
2018-06-02T03:55:26.318Z,67.50
2018-06-02T03:56:26.215Z,67.50
2018-06-02T03:57:26.125Z,73.13
2018-06-02T03:58:26.033Z,73.13
2018-06-02T03:59:25.943Z,73.13
2018-06-02T04:00:25.851Z,78.75
2018-06-02T04:01:26.062Z,78.75
2018-06-02T04:02:25.660Z,84.38
2018-06-02T04:03:25.567Z,84.38
2018-06-02T04:04:25.510Z,90.00
2018-06-02T04:05:25.388Z,90.00
2018-06-02T04:06:25.297Z,95.63
2018-06-02T04:07:25.203Z,95.63
2018-06-02T04:08:25.114Z,95.63
2018-06-02T04:09:25.022Z,101.25
2018-06-02T04:10:24.918Z,101.25
2018-06-02T04:11:24.828Z,106.88
2018-06-02T04:12:24.737Z,106.88
2018-06-02T04:13:24.651Z,112.50
2018-06-02T04:14:24.556Z,112.50
2018-06-02T04:15:24.466Z,112.50
2018-06-02T04:16:24.373Z,118.13
2018-06-02T04:17:24.271Z,118.13
2018-06-02T04:18:24.190Z,118.13
2018-06-02T04:19:24.091Z,118.13
2018-06-02T04:20:23.999Z,118.13
2018-06-02T04:21:23.920Z,118.13
2018-06-02T04:22:23.821Z,118.13
2018-06-02T04:23:23.726Z,118.13
2018-06-02T04:24:23.635Z,118.13
2018-06-02T04:25:23.533Z,123.75
2018-06-02T04:26:23.440Z,123.75
2018-06-02T04:27:23.350Z,123.75
2018-06-02T04:28:23.260Z,123.75
2018-06-02T04:29:23.169Z,123.75
2018-06-02T04:30:23.078Z,123.75
2018-06-02T04:31:22.987Z,129.38
2018-06-02T04:32:22.895Z,129.38
2018-06-02T04:33:22.794Z,140.63
2018-06-02T04:34:22.714Z,135.00
2018-06-02T04:35:22.610Z,140.63
2018-06-02T04:36:22.520Z,135.00
2018-06-02T04:37:22.429Z,140.63
2018-06-02T04:38:22.339Z,140.63
2018-06-02T04:39:22.248Z,146.25
2018-06-02T04:40:22.157Z,146.25
2018-06-02T04:41:22.065Z,151.88
2018-06-02T04:42:21.963Z,151.88
2018-06-02T04:43:21.872Z,157.50
2018-06-02T04:44:21.781Z,157.50
2018-06-02T04:45:21.692Z,163.13
2018-06-02T04:46:21.863Z,163.13
2018-06-02T04:47:21.508Z,163.13
2018-06-02T04:48:21.419Z,168.75
2018-06-02T04:49:21.329Z,168.75
2018-06-02T04:50:21.236Z,168.75
2018-06-02T04:51:21.134Z,168.75
2018-06-02T04:52:21.049Z,174.38
2018-06-02T04:53:20.951Z,180.00
2018-06-02T04:54:20.861Z,180.00
2018-06-02T04:55:20.769Z,185.63
2018-06-02T04:56:20.680Z,191.25
2018-06-02T04:57:20.588Z,191.25
2018-06-02T04:58:20.498Z,191.25
2018-06-02T04:59:20.406Z,191.25
2018-06-02T05:00:20.317Z,185.63
2018-06-02T05:01:20.224Z,191.25
2018-06-02T05:02:20.133Z,191.25
2018-06-02T05:03:20.068Z,196.88
2018-06-02T05:04:19.977Z,196.88
2018-06-02T05:05:19.858Z,202.50
2018-06-02T05:06:19.758Z,208.13
2018-06-02T05:07:19.671Z,213.75
2018-06-02T05:08:19.577Z,219.38
2018-06-02T05:09:19.486Z,225.00
2018-06-02T05:10:19.396Z,236.25
2018-06-02T05:11:19.296Z,236.25
2018-06-02T05:12:19.213Z,236.25
2018-06-02T05:13:19.123Z,241.88
2018-06-02T05:14:19.021Z,241.88
2018-06-02T05:15:18.929Z,247.50
2018-06-02T05:16:18.838Z,247.50
2018-06-02T05:17:18.747Z,253.13
2018-06-02T05:18:18.659Z,253.13
2018-06-02T05:19:18.568Z,253.13
2018-06-02T05:20:18.476Z,247.50
2018-06-02T05:21:18.383Z,247.50
2018-06-02T05:22:18.294Z,247.50
2018-06-02T05:23:18.203Z,247.50
2018-06-02T05:24:18.120Z,247.50
2018-06-02T05:25:18.022Z,247.50
2018-06-02T05:26:18.181Z,253.13
2018-06-02T05:27:17.839Z,253.13
2018-06-02T05:28:17.748Z,258.75
2018-06-02T05:29:17.657Z,253.13
2018-06-02T05:30:17.554Z,253.13
2018-06-02T05:31:17.465Z,253.13
2018-06-02T05:32:17.372Z,258.75
2018-06-02T05:33:17.282Z,258.75
2018-06-02T05:34:17.191Z,258.75
2018-06-02T05:35:17.158Z,270.00
2018-06-02T05:36:17.023Z,264.38
2018-06-02T05:37:16.919Z,270.00
2018-06-02T05:38:16.827Z,275.63
2018-06-02T05:39:16.738Z,275.63
2018-06-02T05:40:16.649Z,281.25
2018-06-02T05:41:16.556Z,286.88
2018-06-02T05:42:16.468Z,286.88
2018-06-02T05:43:16.376Z,292.50
2018-06-02T05:44:16.286Z,303.75
2018-06-02T05:45:16.193Z,309.38
2018-06-02T05:46:16.104Z,315.00
2018-06-02T05:47:16.019Z,320.63
2018-06-02T05:48:15.920Z,326.25
2018-06-02T05:49:15.818Z,337.50
2018-06-02T05:50:15.726Z,337.50
2018-06-02T05:51:15.635Z,348.75
2018-06-02T05:52:15.545Z,354.38
2018-06-02T05:53:15.453Z,354.38
2018-06-02T05:54:15.362Z,354.38
2018-06-02T05:55:15.271Z,354.38
2018-06-02T05:56:15.182Z,360.00
2018-06-02T05:57:15.090Z,365.63
2018-06-02T05:58:14.999Z,371.25
2018-06-02T05:59:14.907Z,376.88
2018-06-02T06:00:14.819Z,388.13
2018-06-02T06:01:14.726Z,393.75
2018-06-02T06:02:14.636Z,393.75
2018-06-02T06:03:14.544Z,405.00
2018-06-02T06:04:14.455Z,421.88
2018-06-02T06:05:14.362Z,405.00
2018-06-02T06:06:14.272Z,405.00
2018-06-02T06:07:14.181Z,405.00
2018-06-02T06:08:14.092Z,444.38
2018-06-02T06:09:14.000Z,450.00
2018-06-02T06:10:13.909Z,444.38
2018-06-02T06:11:13.818Z,376.88
2018-06-02T06:12:13.728Z,438.75
2018-06-02T06:13:13.638Z,438.75
2018-06-02T06:14:13.546Z,405.00
2018-06-02T06:15:13.454Z,365.63
2018-06-02T06:16:13.366Z,376.88
2018-06-02T06:17:13.272Z,433.13
2018-06-02T06:18:13.183Z,410.63
2018-06-02T06:19:13.092Z,421.88
2018-06-02T06:20:13.003Z,405.00
2018-06-02T06:21:13.160Z,455.63
2018-06-02T06:22:12.819Z,483.75
2018-06-02T06:23:12.728Z,500.63
2018-06-02T06:24:12.638Z,461.25
2018-06-02T06:25:12.552Z,489.38
2018-06-02T06:26:12.459Z,540.00
2018-06-02T06:27:12.365Z,562.50
2018-06-02T06:28:12.275Z,568.13
2018-06-02T06:29:12.184Z,579.38
2018-06-02T06:30:12.093Z,540.00
2018-06-02T06:31:12.005Z,556.88
2018-06-02T06:32:11.923Z,641.25
2018-06-02T06:33:11.848Z,652.50
2018-06-02T06:34:11.731Z,658.13
2018-06-02T06:35:11.639Z,675.00
2018-06-02T06:36:11.560Z,708.75
2018-06-02T06:37:11.472Z,720.00
2018-06-02T06:38:11.379Z,708.75
2018-06-02T06:39:11.334Z,680.63
2018-06-02T06:40:11.197Z,708.75
2018-06-02T06:41:11.106Z,708.75
2018-06-02T06:42:11.030Z,697.50
2018-06-02T06:43:10.928Z,675.00
2018-06-02T06:44:10.834Z,641.25
2018-06-02T06:45:10.743Z,618.75
2018-06-02T06:46:10.653Z,596.25
2018-06-02T06:47:10.563Z,579.38
2018-06-02T06:48:10.472Z,568.13
2018-06-02T06:49:10.392Z,573.75
2018-06-02T06:50:10.306Z,579.38
2018-06-02T06:51:10.211Z,579.38
2018-06-02T06:52:10.123Z,579.38
2018-06-02T06:53:10.029Z,624.38
2018-06-02T06:54:09.940Z,663.75
2018-06-02T06:55:09.854Z,708.75
2018-06-02T06:56:09.757Z,736.88
2018-06-02T06:57:09.679Z,770.63
2018-06-02T06:58:09.588Z,787.50
2018-06-02T06:59:09.498Z,826.88
2018-06-02T07:00:09.406Z,810.00
2018-06-02T07:01:09.315Z,838.13
2018-06-02T07:02:09.225Z,821.25
2018-06-02T07:03:09.134Z,826.88
2018-06-02T07:04:09.056Z,821.25
2018-06-02T07:05:08.964Z,849.38
2018-06-02T07:06:08.883Z,984.38
2018-06-02T07:07:08.783Z,1051.88
2018-06-02T07:08:08.698Z,1181.25
2018-06-02T07:09:08.601Z,933.75
2018-06-02T07:10:08.511Z,1119.38
2018-06-02T07:11:08.433Z,1181.25
2018-06-02T07:12:08.353Z,1147.50
2018-06-02T07:13:08.251Z,1108.13
2018-06-02T07:14:08.160Z,1001.25
2018-06-02T07:15:08.069Z,967.50
2018-06-02T07:16:07.991Z,990.00
2018-06-02T07:17:07.900Z,1001.25
2018-06-02T07:18:07.811Z,1040.63
2018-06-02T07:19:07.718Z,1012.50
2018-06-02T07:20:07.642Z,883.13
2018-06-02T07:21:07.807Z,1102.50
2018-06-02T07:22:07.458Z,1153.13
2018-06-02T07:23:07.368Z,776.25
2018-06-02T07:24:07.279Z,1091.25
2018-06-02T07:25:07.262Z,978.75
2018-06-02T07:26:07.107Z,973.13
2018-06-02T07:27:07.018Z,900.00
2018-06-02T07:28:06.938Z,1108.13
2018-06-02T07:29:06.849Z,838.13
2018-06-02T07:30:06.756Z,894.38
2018-06-02T07:31:06.667Z,1231.88
2018-06-02T07:32:06.588Z,1006.88
2018-06-02T07:33:06.497Z,1063.13
2018-06-02T07:34:06.407Z,1614.38
2018-06-02T07:35:06.315Z,1563.75
2018-06-02T07:36:06.253Z,1068.75
2018-06-02T07:37:06.154Z,1411.88
2018-06-02T07:38:06.056Z,2610.00
2018-06-02T07:39:05.977Z,1428.75
2018-06-02T07:40:05.889Z,2272.50
2018-06-02T07:41:05.795Z,2846.25
2018-06-02T07:42:05.717Z,2745.00
2018-06-02T07:43:05.626Z,1980.00
2018-06-02T07:44:05.535Z,1102.50
2018-06-02T07:45:05.456Z,2525.63
2018-06-02T07:46:05.367Z,2418.75
2018-06-02T07:47:05.279Z,2908.13
2018-06-02T07:48:05.197Z,2818.13
2018-06-02T07:49:05.108Z,1738.13
2018-06-02T07:50:05.072Z,2593.13
2018-06-02T07:51:04.937Z,2806.88
2018-06-02T07:52:04.859Z,2829.38
2018-06-02T07:53:04.769Z,2638.13
2018-06-02T07:54:04.691Z,2930.63
2018-06-02T07:55:04.613Z,2109.38
2018-06-02T07:56:04.524Z,2958.75
2018-06-02T07:57:04.430Z,2936.25
2018-06-02T07:58:04.352Z,3234.38
2018-06-02T07:59:04.262Z,1620.00
2018-06-02T08:00:04.184Z,1591.88
2018-06-02T08:01:04.104Z,2992.50
2018-06-02T08:02:04.018Z,2030.63
2018-06-02T08:03:03.937Z,3110.63
2018-06-02T08:04:03.845Z,1636.88
2018-06-02T08:05:03.768Z,1496.25
2018-06-02T08:06:03.937Z,2632.50
2018-06-02T08:07:03.597Z,1400.63
2018-06-02T08:08:03.519Z,2553.75
2018-06-02T08:09:03.440Z,1063.13
2018-06-02T08:10:03.350Z,1603.13
2018-06-02T08:11:03.270Z,1490.63
2018-06-02T08:12:03.182Z,1456.88
2018-06-02T08:13:03.105Z,1001.25
2018-06-02T08:14:03.012Z,1288.13
2018-06-02T08:15:02.933Z,1558.13
2018-06-02T08:16:02.854Z,1265.63
2018-06-02T08:17:02.765Z,961.88
2018-06-02T08:18:02.687Z,1507.50
2018-06-02T08:19:02.595Z,1389.38
2018-06-02T08:20:02.516Z,1051.88
2018-06-02T08:21:02.438Z,933.75
2018-06-02T08:22:02.355Z,1085.63
2018-06-02T08:23:02.270Z,821.25
2018-06-02T08:24:02.177Z,1164.38
2018-06-02T08:25:02.100Z,1918.13
2018-06-02T08:26:02.010Z,3082.50
2018-06-02T08:27:01.931Z,2469.38
2018-06-02T08:28:01.840Z,2868.75
2018-06-02T08:29:01.763Z,2570.63
2018-06-02T08:30:01.673Z,2970.00
2018-06-02T08:31:01.593Z,2430.00
2018-06-02T08:32:01.509Z,1243.13
2018-06-02T08:33:01.424Z,1524.38
2018-06-02T08:34:01.336Z,1265.63
2018-06-02T08:35:01.255Z,1501.88
2018-06-02T08:36:01.163Z,2199.38
2018-06-02T08:37:01.084Z,1845.00
2018-06-02T08:38:00.994Z,2863.13
2018-06-02T08:39:00.952Z,1524.38
2018-06-02T08:40:00.828Z,2975.63
2018-06-02T08:41:01.046Z,2970.00
2018-06-02T08:42:00.656Z,3178.13
2018-06-02T08:43:00.578Z,2773.13
2018-06-02T08:44:00.489Z,2593.13
2018-06-02T08:45:00.409Z,1620.00
2018-06-02T08:46:00.330Z,686.25
2018-06-02T08:47:00.240Z,641.25
2018-06-02T08:48:00.161Z,607.50
2018-06-02T08:49:00.070Z,478.13
2018-06-02T08:49:59.991Z,365.63
2018-06-02T08:50:59.901Z,309.38
2018-06-02T08:51:59.823Z,320.63
2018-06-02T08:52:59.733Z,382.50
2018-06-02T08:53:59.653Z,483.75
2018-06-02T08:54:59.574Z,652.50
2018-06-02T08:55:59.485Z,759.38
2018-06-02T08:56:59.411Z,849.38
2018-06-02T08:57:59.315Z,984.38
2018-06-02T08:58:59.241Z,1237.50
2018-06-02T08:59:59.146Z,939.38
2018-06-02T09:00:59.068Z,641.25
2018-06-02T09:01:58.977Z,618.75
2018-06-02T09:02:58.888Z,753.75
2018-06-02T09:03:58.811Z,1051.88
2018-06-02T09:04:58.718Z,1119.38
2018-06-02T09:05:58.888Z,916.88
2018-06-02T09:06:58.549Z,765.00
2018-06-02T09:07:58.470Z,933.75
2018-06-02T09:08:58.379Z,866.25
2018-06-02T09:09:58.302Z,703.13
2018-06-02T09:10:58.210Z,556.88
2018-06-02T09:11:58.131Z,500.63
2018-06-02T09:12:58.040Z,523.13
2018-06-02T09:13:57.953Z,399.38
2018-06-02T09:14:57.871Z,303.75
2018-06-02T09:15:57.780Z,270.00
2018-06-02T09:16:57.702Z,270.00
2018-06-02T09:17:57.613Z,264.38
2018-06-02T09:18:57.523Z,270.00
2018-06-02T09:19:57.442Z,275.63
2018-06-02T09:20:57.352Z,292.50
2018-06-02T09:21:57.274Z,298.13
2018-06-02T09:22:57.186Z,326.25
2018-06-02T09:23:57.093Z,360.00
2018-06-02T09:24:57.014Z,286.88
2018-06-02T09:25:56.922Z,258.75
2018-06-02T09:26:56.834Z,343.13
2018-06-02T09:27:56.781Z,461.25
2018-06-02T09:28:56.662Z,455.63
2018-06-02T09:29:56.573Z,478.13
2018-06-02T09:30:56.494Z,551.25
2018-06-02T09:31:56.402Z,556.88
2018-06-02T09:32:56.312Z,534.38
2018-06-02T09:33:56.233Z,573.75
2018-06-02T09:34:56.184Z,669.38
2018-06-02T09:35:56.052Z,556.88
2018-06-02T09:36:55.975Z,455.63
2018-06-02T09:37:55.883Z,348.75
2018-06-02T09:38:55.792Z,405.00
2018-06-02T09:39:55.702Z,556.88
2018-06-02T09:40:55.622Z,843.75
2018-06-02T09:41:55.533Z,1057.50
2018-06-02T09:42:55.443Z,956.25
2018-06-02T09:43:55.362Z,1057.50
2018-06-02T09:44:55.273Z,1625.63
2018-06-02T09:45:55.182Z,1473.75
2018-06-02T09:46:55.091Z,1597.50
2018-06-02T09:47:55.013Z,2795.63
2018-06-02T09:48:54.921Z,3037.50
2018-06-02T09:49:54.831Z,2863.13
2018-06-02T09:50:54.752Z,3611.25
2018-06-02T09:51:54.661Z,3645.00
2018-06-02T09:52:54.571Z,3481.88
2018-06-02T09:53:54.494Z,3352.50
2018-06-02T09:54:54.401Z,3155.63
2018-06-02T09:55:54.312Z,3026.25
2018-06-02T09:56:54.234Z,3673.13
2018-06-02T09:57:54.144Z,3515.63
2018-06-02T09:58:54.064Z,3150.00
2018-06-02T09:59:53.984Z,2767.50
2018-06-02T10:00:54.145Z,2227.50
2018-06-02T10:01:53.805Z,1659.38
2018-06-02T10:02:53.725Z,1558.13
2018-06-02T10:03:53.646Z,1445.63
2018-06-02T10:04:53.556Z,1479.38
2018-06-02T10:05:53.478Z,1653.75
2018-06-02T10:06:53.389Z,1445.63
2018-06-02T10:07:53.310Z,1333.13
2018-06-02T10:08:53.231Z,1254.38
2018-06-02T10:09:53.141Z,1215.00
2018-06-02T10:10:53.062Z,1361.25
2018-06-02T10:11:52.983Z,1558.13
2018-06-02T10:12:52.892Z,1074.38
2018-06-02T10:13:52.813Z,928.13
2018-06-02T10:14:52.736Z,1822.50
2018-06-02T10:15:52.645Z,1569.38
2018-06-02T10:16:52.566Z,916.88
2018-06-02T10:17:52.476Z,714.38
2018-06-02T10:18:52.397Z,731.25
2018-06-02T10:19:52.319Z,776.25
2018-06-02T10:20:52.229Z,916.88
2018-06-02T10:21:52.151Z,1254.38
2018-06-02T10:22:52.058Z,1670.63
2018-06-02T10:23:51.981Z,2210.63
2018-06-02T10:24:51.890Z,1816.88
2018-06-02T10:25:51.815Z,1991.25
2018-06-02T10:26:51.721Z,2058.75
2018-06-02T10:27:51.641Z,3555.00
2018-06-02T10:28:51.568Z,2272.50
2018-06-02T10:29:51.474Z,3847.50
2018-06-02T10:30:51.398Z,3892.50
2018-06-02T10:31:51.304Z,3886.88
2018-06-02T10:32:51.225Z,4055.63
2018-06-02T10:33:51.146Z,4258.13
2018-06-02T10:34:51.068Z,4252.50
2018-06-02T10:35:50.979Z,2666.25
2018-06-02T10:36:50.900Z,3825.00
2018-06-02T10:37:50.810Z,4291.88
2018-06-02T10:38:50.730Z,4050.00
2018-06-02T10:39:50.652Z,1209.38
2018-06-02T10:40:50.823Z,1535.63
2018-06-02T10:41:50.495Z,1276.88
2018-06-02T10:42:50.405Z,1299.38
2018-06-02T10:43:50.327Z,4190.63
2018-06-02T10:44:50.248Z,5484.38
2018-06-02T10:45:50.170Z,5321.25
2018-06-02T10:46:50.096Z,4809.38
2018-06-02T10:47:50.002Z,5326.88
2018-06-02T10:48:49.922Z,5619.38
2018-06-02T10:49:49.843Z,5596.88
2018-06-02T10:50:49.766Z,5630.63
2018-06-02T10:51:49.687Z,5692.50
2018-06-02T10:52:49.609Z,4207.50
2018-06-02T10:53:49.530Z,1546.88
2018-06-02T10:54:49.445Z,1260.00
2018-06-02T10:55:49.363Z,1299.38
2018-06-02T10:56:49.284Z,3504.38
2018-06-02T10:57:49.206Z,3403.13
2018-06-02T10:58:49.128Z,4033.13
2018-06-02T10:59:49.049Z,4336.88
2018-06-02T11:00:49.221Z,4303.13
2018-06-02T11:01:48.966Z,4263.75
2018-06-02T11:02:48.814Z,3622.50
2018-06-02T11:03:48.735Z,2520.00
2018-06-02T11:04:48.646Z,2289.38
2018-06-02T11:05:48.566Z,1434.38
2018-06-02T11:06:48.501Z,1316.25
2018-06-02T11:07:48.409Z,1113.75
2018-06-02T11:08:48.351Z,1203.75
2018-06-02T11:09:48.255Z,1293.75
2018-06-02T11:10:48.175Z,1338.75
2018-06-02T11:11:48.099Z,1608.75
2018-06-02T11:12:48.021Z,1968.75
2018-06-02T11:13:47.939Z,1777.50
2018-06-02T11:14:47.849Z,1130.63
2018-06-02T11:15:47.772Z,1074.38
2018-06-02T11:16:47.697Z,1462.50
2018-06-02T11:17:47.615Z,1248.75
2018-06-02T11:18:47.537Z,1164.38
2018-06-02T11:19:47.447Z,1091.25
2018-06-02T11:20:47.367Z,1040.63
2018-06-02T11:21:47.288Z,1012.50
2018-06-02T11:22:47.213Z,1080.00
2018-06-02T11:23:47.132Z,1170.00
2018-06-02T11:24:47.053Z,1383.75
2018-06-02T11:25:47.018Z,1209.38
2018-06-02T11:26:46.885Z,1130.63
2018-06-02T11:27:46.793Z,1035.00
2018-06-02T11:28:46.715Z,1035.00
2018-06-02T11:29:46.650Z,1046.25
2018-06-02T11:30:46.546Z,1040.63
2018-06-02T11:31:46.468Z,1057.50
2018-06-02T11:32:46.390Z,1068.75
2018-06-02T11:33:46.297Z,1085.63
2018-06-02T11:34:46.220Z,1113.75
2018-06-02T11:35:46.147Z,1113.75
2018-06-02T11:36:46.052Z,1113.75
2018-06-02T11:37:45.975Z,1091.25
2018-06-02T11:38:45.884Z,1029.38
2018-06-02T11:39:45.803Z,945.00
2018-06-02T11:40:45.770Z,883.13
2018-06-02T11:41:45.634Z,877.50
2018-06-02T11:42:45.556Z,883.13
2018-06-02T11:43:45.464Z,916.88
2018-06-02T11:44:45.387Z,1451.25
2018-06-02T11:45:45.297Z,2475.00
2018-06-02T11:46:45.219Z,2160.00
2018-06-02T11:47:45.140Z,2171.25
2018-06-02T11:48:45.048Z,2368.13
2018-06-02T11:49:44.959Z,2587.50
2018-06-02T11:50:44.880Z,1906.88
2018-06-02T11:51:44.801Z,1563.75
2018-06-02T11:52:44.709Z,2025.00
2018-06-02T11:53:44.632Z,2626.88
2018-06-02T11:54:44.545Z,2632.50
2018-06-02T11:55:44.466Z,3780.00
2018-06-02T11:56:44.373Z,3712.50
2018-06-02T11:57:44.293Z,2806.88
2018-06-02T11:58:44.215Z,2306.25
2018-06-02T11:59:44.149Z,1625.63
2018-06-02T12:00:44.047Z,1535.63
2018-06-02T12:01:43.956Z,1670.63
2018-06-02T12:02:43.877Z,1293.75
2018-06-02T12:03:43.800Z,1215.00
2018-06-02T12:04:43.709Z,1186.88
2018-06-02T12:05:43.630Z,1164.38
2018-06-02T12:06:43.540Z,1158.75
2018-06-02T12:07:43.464Z,1158.75
2018-06-02T12:08:43.382Z,1153.13
2018-06-02T12:09:43.293Z,1141.88
2018-06-02T12:10:43.215Z,1158.75
2018-06-02T12:11:43.123Z,1209.38
2018-06-02T12:12:43.045Z,1226.25
2018-06-02T12:13:42.966Z,1226.25
2018-06-02T12:14:42.876Z,1198.13
2018-06-02T12:15:42.798Z,1186.88
2018-06-02T12:16:42.705Z,1147.50
2018-06-02T12:17:42.645Z,1040.63
2018-06-02T12:18:42.537Z,978.75
2018-06-02T12:19:42.461Z,1001.25
2018-06-02T12:20:42.369Z,984.38
2018-06-02T12:21:42.290Z,984.38
2018-06-02T12:22:42.224Z,984.38
2018-06-02T12:23:42.121Z,1040.63
2018-06-02T12:24:42.044Z,950.63
2018-06-02T12:25:41.954Z,922.50
2018-06-02T12:26:41.873Z,905.63
2018-06-02T12:27:41.783Z,871.88
2018-06-02T12:28:41.705Z,855.00
2018-06-02T12:29:41.616Z,798.75
2018-06-02T12:30:41.534Z,748.13
2018-06-02T12:31:41.446Z,725.63
2018-06-02T12:32:41.367Z,736.88
2018-06-02T12:33:41.275Z,742.50